Time;durP1;ratioP1;P1;durP2;ratioP2;P2;SDS_P1;SDS_P2;PMS_P1;PMS_P2;Temp;Humidity;BMP_temperature;BMP_pressure;BME280_temperature;BME280_humidity;BME280_pressure;Samples;Min_cycle;Max_cycle;Signal;HPM_P1;HPM_P2
2023/09/30 00:01:52;;;;;;;3.50;2.33;;;;;;;19.45;93.69;98955.41;4086996;28;20737;-90
2023/09/30 00:03:56;;;;;;;4.57;2.40;;;;;;;19.43;93.36;98968.78;4101883;28;20640;-90
2023/09/30 00:06:00;;;;;;;3.97;2.30;;;;;;;19.43;93.86;98955.56;4108701;28;20696;-89
2023/09/30 00:08:04;;;;;;;6.20;2.37;;;;;;;19.42;94.20;98953.06;4060976;29;20691;-90
2023/09/30 00:10:08;;;;;;;4.47;2.10;;;;;;;19.43;93.72;98962.69;4078105;29;20689;-90
2023/09/30 00:12:12;;;;;;;4.23;2.37;;;;;;;19.41;93.62;98957.53;4069944;29;20643;-90
2023/09/30 00:14:17;;;;;;;5.63;2.60;;;;;;;19.41;94.20;98951.41;4069729;29;20654;-90
2023/09/30 00:16:20;;;;;;;3.40;2.00;;;;;;;19.39;94.37;98951.53;4085101;28;20736;-90
2023/09/30 00:18:23;;;;;;;3.80;2.20;;;;;;;19.36;93.21;98950.13;4086316;28;22070;-90
2023/09/30 00:20:27;;;;;;;4.50;2.37;;;;;;;19.34;94.63;98946.78;4090524;28;21385;-90
2023/09/30 00:22:31;;;;;;;4.77;2.50;;;;;;;19.29;94.48;98941.91;4072656;29;20638;-90
2023/09/30 00:24:34;;;;;;;7.43;3.60;;;;;;;19.26;93.69;98941.34;4086663;28;20737;-89
2023/09/30 00:26:37;;;;;;;6.23;2.70;;;;;;;19.22;93.24;98950.53;4071751;29;21095;-90
2023/09/30 00:28:41;;;;;;;4.50;2.80;;;;;;;19.17;94.16;98944.78;4086075;28;20646;-90
2023/09/30 00:30:47;;;;;;;4.03;2.97;;;;;;;19.12;94.51;98941.75;4069262;29;20743;-90
2023/09/30 00:32:51;;;;;;;4.37;2.77;;;;;;;19.08;93.55;98946.47;4055209;29;20703;-90
2023/09/30 00:34:54;;;;;;;5.67;2.90;;;;;;;19.07;94.49;98943.97;4099978;28;20658;-90
2023/09/30 00:36:59;;;;;;;5.10;3.10;;;;;;;19.05;94.60;98956.50;4056145;29;20639;-89
2023/09/30 00:39:03;;;;;;;4.20;2.30;;;;;;;19.03;94.21;98953.13;4055019;29;21043;-89
2023/09/30 00:41:07;;;;;;;4.50;2.50;;;;;;;18.99;93.70;98949.91;4055778;29;20655;-89
2023/09/30 00:43:19;;;;;;;4.33;2.60;;;;;;;18.97;93.51;98956.28;4067837;29;21015;-89
2023/09/30 00:45:22;;;;;;;4.10;2.33;;;;;;;18.94;94.64;98964.47;4102375;28;22670;-90
2023/09/30 00:47:27;;;;;;;3.60;2.60;;;;;;;18.91;94.33;98962.09;4075559;29;20756;-89
2023/09/30 00:49:30;;;;;;;4.80;2.50;;;;;;;18.88;93.96;98967.66;4074985;29;20639;-89
2023/09/30 00:51:34;;;;;;;4.30;2.70;;;;;;;18.86;93.46;98974.91;4094731;28;20629;-89
2023/09/30 00:53:39;;;;;;;4.73;2.17;;;;;;;18.81;94.35;98973.63;4072606;29;20648;-89
2023/09/30 00:55:42;;;;;;;4.60;2.83;;;;;;;18.77;93.74;98978.34;4090093;28;20661;-89
2023/09/30 00:57:45;;;;;;;5.20;2.33;;;;;;;18.75;93.64;98982.09;4103276;28;20621;-89
2023/09/30 00:59:49;;;;;;;4.67;2.60;;;;;;;18.72;93.85;98977.91;4078713;29;21030;-89
2023/09/30 01:01:52;;;;;;;4.10;2.50;;;;;;;18.71;94.75;98972.78;4069745;29;20652;-89
2023/09/30 01:03:58;;;;;;;4.20;2.40;;;;;;;18.69;94.32;98972.91;4087729;28;20672;-89
2023/09/30 01:06:03;;;;;;;4.90;2.90;;;;;;;18.68;95.22;98975.69;4104220;28;21197;-89
2023/09/30 01:08:07;;;;;;;3.80;2.20;;;;;;;18.67;94.65;98969.56;4106149;28;20665;-89
2023/09/30 01:10:12;;;;;;;3.83;2.60;;;;;;;18.65;94.46;98974.13;4103349;28;21272;-89
2023/09/30 01:12:16;;;;;;;4.50;2.57;;;;;;;18.64;94.66;98977.75;4078450;29;20629;-89
2023/09/30 01:14:25;;;;;;;4.20;2.67;;;;;;;18.63;94.17;98981.34;4072042;29;20713;-89
2023/09/30 01:16:28;;;;;;;6.57;3.20;;;;;;;18.58;94.69;98986.22;4090715;29;20683;-89
2023/09/30 01:18:31;;;;;;;7.93;2.30;;;;;;;18.55;94.99;98975.91;4087637;28;20643;-89
2023/09/30 01:20:35;;;;;;;3.70;2.60;;;;;;;18.55;95.32;98980.34;4090170;28;20642;-89
2023/09/30 01:22:40;;;;;;;4.20;2.67;;;;;;;18.53;94.87;98977.00;4091125;28;21175;-89
2023/09/30 01:24:47;;;;;;;5.00;3.03;;;;;;;18.47;95.08;98974.88;4090578;28;22681;-89
2023/09/30 01:26:51;;;;;;;5.33;2.90;;;;;;;18.42;94.56;98974.44;4058866;29;21244;-89
2023/09/30 01:28:55;;;;;;;3.87;2.63;;;;;;;18.41;94.76;98971.94;4088841;29;21211;-89
2023/09/30 01:30:58;;;;;;;4.07;2.80;;;;;;;18.35;94.82;98965.34;4087547;29;21263;-89
2023/09/30 01:33:01;;;;;;;3.97;2.30;;;;;;;18.34;95.00;98965.50;4073043;29;21241;-89
2023/09/30 01:35:06;;;;;;;4.30;2.80;;;;;;;18.33;95.12;98967.31;4059215;29;20702;-89
2023/09/30 01:37:08;;;;;;;4.67;3.27;;;;;;;18.30;94.83;98970.22;4074305;29;20684;-90
2023/09/30 01:39:13;;;;;;;5.20;3.07;;;;;;;18.26;95.28;98968.78;4071673;29;20635;-89
2023/09/30 01:41:17;;;;;;;5.03;3.03;;;;;;;18.24;94.83;98975.19;4089989;28;20639;-89
2023/09/30 01:43:20;;;;;;;3.80;2.63;;;;;;;18.23;95.05;98978.78;4086775;28;20726;-90
2023/09/30 01:45:23;;;;;;;4.37;2.90;;;;;;;18.21;95.00;98980.72;4073874;29;20684;-89
2023/09/30 01:47:29;;;;;;;4.93;3.10;;;;;;;18.20;95.06;98979.88;4070271;29;20661;-91
2023/09/30 01:49:32;;;;;;;5.23;3.23;;;;;;;18.21;95.24;98980.72;4069428;28;20664;-90
2023/09/30 01:51:35;;;;;;;3.60;2.67;;;;;;;18.18;95.13;98975.69;4069349;29;20676;-90
2023/09/30 01:53:39;;;;;;;4.00;2.70;;;;;;;18.16;94.95;98982.91;4086719;28;20639;-90
2023/09/30 01:55:44;;;;;;;5.70;3.03;;;;;;;18.13;95.34;98972.59;4085655;28;20663;-90
2023/09/30 01:57:47;;;;;;;5.47;3.60;;;;;;;18.11;95.65;98977.13;4103521;28;20636;-90
2023/09/30 01:59:51;;;;;;;5.37;3.30;;;;;;;18.08;95.13;98980.03;4089460;28;20665;-90
2023/09/30 02:01:54;;;;;;;6.70;4.30;;;;;;;18.05;95.48;98985.56;4072291;29;20626;-90
2023/09/30 02:03:58;;;;;;;8.03;3.90;;;;;;;18.04;95.55;98987.41;4073789;29;21042;-90
2023/09/30 02:06:02;;;;;;;4.10;3.20;;;;;;;18.02;95.81;98986.66;4072425;29;20646;-90
2023/09/30 02:08:06;;;;;;;5.10;3.33;;;;;;;18.01;95.97;98974.44;4075318;29;20637;-90
2023/09/30 02:10:10;;;;;;;4.70;3.30;;;;;;;18.02;95.98;98985.84;4103629;28;20628;-90
2023/09/30 02:12:15;;;;;;;5.10;3.30;;;;;;;18.02;95.97;98991.13;4104058;28;20635;-90
2023/09/30 02:14:19;;;;;;;5.20;3.13;;;;;;;18.03;96.12;98996.28;4102741;28;20641;-90
2023/09/30 02:16:22;;;;;;;5.43;3.20;;;;;;;18.03;96.31;98987.53;4086668;28;20673;-90
2023/09/30 02:18:26;;;;;;;5.90;3.60;;;;;;;18.04;96.02;98992.66;4088195;28;21000;-90
2023/09/30 02:20:30;;;;;;;5.77;2.97;;;;;;;18.01;95.36;98992.06;4085681;28;20681;-90
2023/09/30 02:22:34;;;;;;;5.57;3.23;;;;;;;17.93;95.23;98994.53;4101880;28;21379;-90
2023/09/30 02:24:37;;;;;;;6.00;3.07;;;;;;;17.91;95.50;98998.28;4093536;28;21066;-90
2023/09/30 02:26:40;;;;;;;5.83;3.30;;;;;;;17.85;95.90;98994.34;4059055;29;20710;-90
2023/09/30 02:28:44;;;;;;;5.43;3.10;;;;;;;17.81;96.23;99005.28;4104951;28;21364;-89
2023/09/30 02:30:48;;;;;;;6.50;3.80;;;;;;;17.74;95.64;99002.31;4074705;29;20710;-89
2023/09/30 02:32:52;;;;;;;4.97;3.00;;;;;;;17.67;95.46;99006.41;4077870;29;20700;-89
2023/09/30 02:34:55;;;;;;;6.20;3.50;;;;;;;17.63;95.50;99004.13;4074692;29;20670;-88
2023/09/30 02:36:59;;;;;;;5.07;3.70;;;;;;;17.60;96.11;99005.22;4086765;28;20671;-88
2023/09/30 02:39:04;;;;;;;6.50;3.50;;;;;;;17.60;95.85;99007.03;4071215;29;20633;-88
2023/09/30 02:41:08;;;;;;;4.70;3.70;;;;;;;17.60;97.41;99002.56;4083526;28;20655;-89
2023/09/30 02:43:11;;;;;;;5.07;3.40;;;;;;;17.61;97.52;99001.63;4084471;28;20693;-89
2023/09/30 02:45:17;;;;;;;5.53;3.70;;;;;;;17.63;97.82;98999.69;4101235;28;20728;-88
2023/09/30 02:47:19;;;;;;;4.77;3.70;;;;;;;17.65;98.01;99004.84;4087181;28;20801;-89
2023/09/30 02:49:23;;;;;;;6.30;3.60;;;;;;;17.68;98.52;98994.91;4090237;28;20649;-89
2023/09/30 02:51:26;;;;;;;8.63;3.97;;;;;;;17.69;98.37;98995.72;4086358;28;20769;-89
2023/09/30 02:53:32;;;;;;;6.20;4.37;;;;;;;17.70;98.25;99000.88;4104597;28;20662;-89
2023/09/30 02:55:35;;;;;;;5.00;3.87;;;;;;;17.71;98.04;99002.56;4106984;28;20661;-89
2023/09/30 02:57:39;;;;;;;6.33;3.97;;;;;;;17.71;98.08;98999.91;4102053;28;21100;-88
2023/09/30 02:59:44;;;;;;;5.43;3.50;;;;;;;17.73;98.49;99002.44;4085393;28;20687;-88
2023/09/30 03:01:49;;;;;;;5.13;4.00;;;;;;;17.72;98.42;99000.75;4101505;28;20674;-88
2023/09/30 03:03:52;;;;;;;5.90;4.17;;;;;;;17.72;98.21;98995.47;4103818;28;20718;-88
2023/09/30 03:05:57;;;;;;;5.60;3.90;;;;;;;17.67;97.91;99006.41;4083560;28;20694;-88
2023/09/30 03:08:00;;;;;;;6.23;3.97;;;;;;;17.64;98.21;99009.28;4087072;28;20636;-88
2023/09/30 03:10:06;;;;;;;6.70;3.80;;;;;;;17.60;97.52;99017.59;4069727;28;21232;-88
2023/09/30 03:12:09;;;;;;;6.00;4.13;;;;;;;17.56;96.94;99011.72;4071220;29;21221;-89
2023/09/30 03:14:13;;;;;;;7.27;4.17;;;;;;;17.54;97.37;99011.00;4072530;29;21232;-88
2023/09/30 03:16:16;;;;;;;5.33;4.03;;;;;;;17.50;97.22;99014.88;4071096;29;20736;-88
2023/09/30 03:18:26;;;;;;;5.80;4.20;;;;;;;17.46;97.57;99018.69;4086084;28;21313;-88
2023/09/30 03:20:30;;;;;;;8.90;4.27;;;;;;;17.46;97.44;99031.91;4072633;29;20693;-88
2023/09/30 03:22:33;;;;;;;6.50;3.67;;;;;;;17.46;98.06;99039.81;4073368;29;20672;-88
2023/09/30 03:24:37;;;;;;;5.80;4.07;;;;;;;17.47;98.85;99049.41;4086955;28;20666;-88
2023/09/30 03:26:41;;;;;;;5.33;3.83;;;;;;;17.46;97.77;99042.44;4074488;29;20654;-88
2023/09/30 03:28:43;;;;;;;7.00;4.50;;;;;;;17.47;97.94;99030.94;4086390;29;20642;-88
2023/09/30 03:30:47;;;;;;;6.47;3.90;;;;;;;17.49;98.68;99030.81;4073514;29;20677;-88
2023/09/30 03:32:50;;;;;;;7.40;4.17;;;;;;;17.48;98.80;99043.19;4101325;28;20768;-88
2023/09/30 03:34:58;;;;;;;6.43;4.20;;;;;;;17.47;98.65;99052.03;4103936;28;20654;-88
2023/09/30 03:37:02;;;;;;;6.50;4.50;;;;;;;17.44;98.67;99045.31;4102581;28;20762;-89
2023/09/30 03:39:08;;;;;;;6.20;4.07;;;;;;;17.43;97.80;99043.69;4070532;29;20670;-88
2023/09/30 03:41:13;;;;;;;5.40;4.00;;;;;;;17.43;97.93;99051.59;4077891;29;20640;-88
2023/09/30 03:43:16;;;;;;;5.40;3.80;;;;;;;17.41;98.27;99046.44;4069930;29;21238;-88
2023/09/30 03:45:19;;;;;;;7.27;4.07;;;;;;;17.41;97.91;99045.56;4085385;28;20645;-88
2023/09/30 03:47:22;;;;;;;6.60;3.97;;;;;;;17.40;97.81;99039.47;4091942;28;20665;-88
2023/09/30 03:49:25;;;;;;;6.03;3.97;;;;;;;17.37;97.61;99026.53;4104568;28;20646;-88
2023/09/30 03:51:29;;;;;;;7.03;4.13;;;;;;;17.31;98.14;99034.09;4106399;28;20642;-88
2023/09/30 03:53:33;;;;;;;5.47;4.30;;;;;;;17.27;97.24;99033.50;4105187;28;20690;-88
2023/09/30 03:55:37;;;;;;;8.40;3.83;;;;;;;17.24;97.67;99028.47;4070515;29;20679;-88
2023/09/30 03:57:40;;;;;;;6.30;4.17;;;;;;;17.20;97.76;99015.63;4060579;29;20707;-88
2023/09/30 03:59:45;;;;;;;5.53;4.20;;;;;;;17.13;98.12;99017.09;4070565;29;20626;-88
2023/09/30 04:01:49;;;;;;;5.63;4.23;;;;;;;17.09;98.69;99016.50;4071387;29;20636;-88
2023/09/30 04:03:54;;;;;;;5.40;4.23;;;;;;;17.08;97.94;99011.34;4055923;29;20737;-88
2023/09/30 04:05:58;;;;;;;6.30;4.67;;;;;;;17.06;99.32;99014.09;4083408;28;21092;-88
2023/09/30 04:08:05;;;;;;;6.40;4.70;;;;;;;17.04;99.29;99013.38;4087057;28;20647;-89
2023/09/30 04:10:09;;;;;;;6.00;4.80;;;;;;;17.05;97.96;99019.50;4082506;28;20662;-89
2023/09/30 04:12:12;;;;;;;7.20;5.03;;;;;;;17.02;98.38;99025.84;4071910;29;20635;-89
2023/09/30 04:14:17;;;;;;;7.00;5.03;;;;;;;17.00;97.87;99017.22;4100133;28;21037;-89
2023/09/30 04:16:20;;;;;;;7.80;5.50;;;;;;;17.00;98.97;99022.50;4060490;29;20776;-88
2023/09/30 04:18:25;;;;;;;8.33;5.00;;;;;;;16.97;98.13;99019.25;4070895;28;20646;-89
2023/09/30 04:20:29;;;;;;;7.97;4.90;;;;;;;16.94;98.87;99022.13;4070878;29;20628;-88
2023/09/30 04:22:32;;;;;;;8.30;5.70;;;;;;;16.91;99.50;99021.53;4084957;28;20692;-88
2023/09/30 04:24:37;;;;;;;6.53;4.50;;;;;;;16.89;98.68;99021.66;4071138;29;20682;-89
2023/09/30 04:26:41;;;;;;;7.70;5.37;;;;;;;16.87;99.14;99014.81;4085308;28;20648;-89
2023/09/30 04:28:45;;;;;;;8.23;4.67;;;;;;;16.81;97.77;99008.25;4069114;29;20755;-88
2023/09/30 04:30:48;;;;;;;8.03;4.60;;;;;;;16.73;96.61;99015.06;4068780;29;20671;-89
2023/09/30 04:32:51;;;;;;;11.30;7.30;;;;;;;16.65;97.89;99018.28;4070487;29;21206;-89
2023/09/30 04:34:55;;;;;;;20.40;11.43;;;;;;;16.63;98.81;99017.59;4071044;29;20646;-89
2023/09/30 04:36:59;;;;;;;23.47;11.07;;;;;;;16.63;99.19;99014.94;4084651;28;21630;-89
2023/09/30 04:39:03;;;;;;;11.00;6.93;;;;;;;16.60;98.48;99017.81;4089846;28;20740;-89
2023/09/30 04:41:08;;;;;;;10.37;6.27;;;;;;;16.55;97.85;99021.75;4052900;29;20639;-89
2023/09/30 04:43:11;;;;;;;11.03;5.87;;;;;;;16.51;97.40;99028.25;4071194;29;20634;-89
2023/09/30 04:45:16;;;;;;;10.00;6.03;;;;;;;16.52;97.23;99037.81;4072474;29;20681;-89
2023/09/30 04:47:19;;;;;;;10.07;5.90;;;;;;;16.55;97.21;99045.47;4073344;29;20633;-89
2023/09/30 04:49:23;;;;;;;8.27;5.87;;;;;;;16.56;98.10;99044.53;4087351;28;20664;-89
2023/09/30 04:51:27;;;;;;;8.43;5.80;;;;;;;16.60;98.00;99043.34;4086387;28;20646;-89
2023/09/30 04:53:31;;;;;;;9.90;6.63;;;;;;;16.61;98.20;99048.50;4070279;29;20643;-89
2023/09/30 04:55:34;;;;;;;8.57;6.40;;;;;;;16.62;99.08;99046.69;4089247;28;20656;-88
2023/09/30 04:57:38;;;;;;;7.60;5.53;;;;;;;16.63;100.00;99051.00;4084155;28;22501;-89
2023/09/30 04:59:42;;;;;;;8.10;5.30;;;;;;;16.62;99.31;99065.13;4084042;28;20636;-89
2023/09/30 05:01:45;;;;;;;10.67;6.03;;;;;;;16.62;100.00;99076.50;4069994;29;20740;-88
2023/09/30 05:03:49;;;;;;;12.33;6.80;;;;;;;16.57;98.09;99078.66;4057128;29;21238;-89
2023/09/30 05:05:55;;;;;;;10.70;6.23;;;;;;;16.47;95.54;99062.84;4070799;29;20633;-88
2023/09/30 05:07:59;;;;;;;9.10;5.77;;;;;;;16.38;96.58;99067.00;4074933;29;21285;-89
2023/09/30 05:10:04;;;;;;;12.40;8.50;;;;;;;16.33;97.59;99074.41;4071307;29;21255;-89
2023/09/30 05:12:08;;;;;;;13.63;7.23;;;;;;;16.31;96.64;99059.69;4084912;28;21086;-89
2023/09/30 05:14:17;;;;;;;13.63;7.97;;;;;;;16.31;95.91;99067.56;4097341;28;20672;-89
2023/09/30 05:16:20;;;;;;;13.53;7.40;;;;;;;16.32;98.66;99077.16;4086619;28;20637;-89
2023/09/30 05:18:23;;;;;;;12.87;7.83;;;;;;;16.31;99.11;99078.97;4083779;28;21059;-89
2023/09/30 05:20:28;;;;;;;12.60;7.87;;;;;;;16.36;97.93;99092.63;4099325;28;20629;-89
2023/09/30 05:22:30;;;;;;;11.83;7.27;;;;;;;16.37;97.82;99094.28;4071039;29;20647;-89
2023/09/30 05:24:34;;;;;;;13.60;7.90;;;;;;;16.37;98.17;99089.00;4074479;29;20655;-89
2023/09/30 05:26:38;;;;;;;10.57;6.63;;;;;;;16.38;99.80;99095.97;4072158;29;20757;-89
2023/09/30 05:28:42;;;;;;;12.67;7.33;;;;;;;16.37;98.75;99080.28;4067536;29;20644;-88
2023/09/30 05:30:47;;;;;;;9.40;6.20;;;;;;;16.37;97.91;99090.81;4086672;28;21281;-89
2023/09/30 05:32:52;;;;;;;11.40;6.57;;;;;;;16.36;99.08;99095.25;4080231;28;20649;-88
2023/09/30 05:34:56;;;;;;;9.87;6.87;;;;;;;16.37;98.46;99082.91;4070536;29;20630;-89
2023/09/30 05:36:59;;;;;;;10.43;6.23;;;;;;;16.38;99.45;99074.91;4072766;29;20649;-89
2023/09/30 05:39:03;;;;;;;10.53;6.13;;;;;;;16.41;100.00;99085.19;4088612;28;20697;-89
2023/09/30 05:41:06;;;;;;;11.27;7.10;;;;;;;16.45;100.00;99075.25;4087911;28;20658;-88
2023/09/30 05:43:13;;;;;;;11.30;7.13;;;;;;;16.48;99.71;99073.25;4073728;29;20654;-88
2023/09/30 05:45:16;;;;;;;8.60;5.63;;;;;;;16.50;100.00;99074.78;4073955;29;20635;-89
2023/09/30 05:47:20;;;;;;;9.50;5.67;;;;;;;16.54;100.00;99076.25;4085994;28;21049;-89
2023/09/30 05:49:24;;;;;;;10.60;6.33;;;;;;;16.56;100.00;99082.22;4074716;29;20842;-89
2023/09/30 05:51:27;;;;;;;8.40;5.73;;;;;;;16.54;100.00;99078.88;4086282;28;20651;-89
2023/09/30 05:53:32;;;;;;;9.77;5.93;;;;;;;16.57;99.08;99083.09;4098560;28;20647;-89
2023/09/30 05:55:35;;;;;;;7.37;5.80;;;;;;;16.58;100.00;99088.25;4092904;28;21863;-88
2023/09/30 05:57:39;;;;;;;7.53;5.70;;;;;;;16.59;99.88;99089.91;4068261;29;20706;-88
2023/09/30 05:59:42;;;;;;;9.00;6.10;;;;;;;16.60;100.00;99096.84;4072437;29;20640;-87
2023/09/30 06:01:46;;;;;;;8.33;5.70;;;;;;;16.65;100.00;99097.34;4077416;29;20630;-87
2023/09/30 06:03:50;;;;;;;14.57;7.27;;;;;;;16.68;100.00;99097.09;4102074;28;20739;-88
2023/09/30 06:05:55;;;;;;;7.53;5.83;;;;;;;16.71;100.00;99096.88;4073457;29;20645;-88
2023/09/30 06:07:59;;;;;;;10.60;6.80;;;;;;;16.73;100.00;99105.50;4090758;28;20642;-88
2023/09/30 06:10:03;;;;;;;9.50;6.30;;;;;;;16.76;100.00;99115.78;4072395;29;20653;-88
2023/09/30 06:12:07;;;;;;;10.83;6.50;;;;;;;16.79;100.00;99122.63;4086162;28;20813;-88
2023/09/30 06:14:10;;;;;;;11.50;5.80;;;;;;;16.81;100.00;99142.66;4070081;29;20634;-88
2023/09/30 06:16:13;;;;;;;8.57;5.90;;;;;;;16.83;100.00;99132.00;4093749;28;20660;-89
2023/09/30 06:18:16;;;;;;;7.93;5.30;;;;;;;16.86;100.00;99126.47;4074160;28;20663;-88
2023/09/30 06:20:22;;;;;;;8.30;5.97;;;;;;;16.92;100.00;99144.47;4073534;29;20676;-88
2023/09/30 06:22:26;;;;;;;8.53;6.67;;;;;;;16.95;100.00;99150.31;4088928;28;20638;-89
2023/09/30 06:24:31;;;;;;;10.83;6.00;;;;;;;16.98;100.00;99150.09;4075741;29;20645;-88
2023/09/30 06:26:35;;;;;;;9.70;5.60;;;;;;;16.99;100.00;99135.97;4074558;29;20738;-88
2023/09/30 06:28:40;;;;;;;8.20;6.60;;;;;;;17.03;100.00;99135.63;4072303;29;20738;-88
2023/09/30 06:30:46;;;;;;;11.60;6.43;;;;;;;17.05;100.00;99141.59;4073789;29;20677;-88
2023/09/30 06:32:50;;;;;;;9.30;6.80;;;;;;;17.08;99.41;99137.91;4083161;29;20638;-88
2023/09/30 06:34:53;;;;;;;10.80;6.73;;;;;;;17.10;100.00;99138.59;4072800;29;21034;-89
2023/09/30 06:36:58;;;;;;;10.77;5.90;;;;;;;17.09;100.00;99160.63;4076519;29;20640;-89
2023/09/30 06:39:05;;;;;;;8.90;5.53;;;;;;;17.07;99.94;99149.38;4087481;28;23125;-90
2023/09/30 06:41:09;;;;;;;8.47;6.13;;;;;;;17.09;100.00;99142.19;4074593;29;21504;-89
2023/09/30 06:43:11;;;;;;;8.47;5.83;;;;;;;17.16;99.70;99143.41;4085578;28;20655;-90
2023/09/30 06:45:15;;;;;;;10.77;5.90;;;;;;;17.20;99.59;99156.25;4072920;29;20638;-89
2023/09/30 06:47:20;;;;;;;9.83;6.63;;;;;;;17.27;100.00;99154.81;4073150;29;20767;-89
2023/09/30 06:49:24;;;;;;;11.83;7.20;;;;;;;17.34;99.25;99150.75;4090099;28;21203;-89
2023/09/30 06:51:27;;;;;;;11.00;6.60;;;;;;;17.43;99.56;99159.75;4101967;28;20648;-88
2023/09/30 06:53:35;;;;;;;9.93;6.20;;;;;;;17.50;99.71;99159.97;4089286;28;20641;-89
2023/09/30 06:55:39;;;;;;;8.73;5.53;;;;;;;17.62;98.79;99164.28;4085197;28;20646;-89
2023/09/30 06:57:45;;;;;;;9.20;5.47;;;;;;;17.77;99.16;99173.63;4102592;28;20892;-89
2023/09/30 06:59:49;;;;;;;14.43;6.70;;;;;;;17.92;99.56;99181.13;4088312;28;20689;-88
2023/09/30 07:01:52;;;;;;;7.93;5.93;;;;;;;18.01;98.90;99184.81;4074871;29;20633;-89
2023/09/30 07:03:55;;;;;;;8.50;6.03;;;;;;;18.03;98.10;99188.19;4073856;29;20714;-89
2023/09/30 07:06:00;;;;;;;9.60;6.13;;;;;;;18.02;98.25;99179.41;4102096;28;20645;-91
2023/09/30 07:08:03;;;;;;;8.33;5.90;;;;;;;18.13;97.60;99182.09;4076463;29;20643;-88
2023/09/30 07:10:09;;;;;;;11.20;6.97;;;;;;;18.31;97.75;99182.38;4073578;29;20711;-89
2023/09/30 07:12:13;;;;;;;11.77;8.37;;;;;;;18.47;98.08;99184.47;4108863;28;20658;-89
2023/09/30 07:14:16;;;;;;;11.57;7.77;;;;;;;18.61;96.85;99176.25;4077241;29;20632;-89
2023/09/30 07:16:19;;;;;;;9.30;6.97;;;;;;;18.67;95.91;99175.75;4111739;28;20636;-89
2023/09/30 07:18:24;;;;;;;10.47;7.47;;;;;;;18.69;94.26;99175.59;4074535;29;21041;-88
2023/09/30 07:20:29;;;;;;;10.73;7.60;;;;;;;18.73;95.30;99180.47;4071071;29;20642;-89
2023/09/30 07:22:31;;;;;;;10.00;7.30;;;;;;;18.84;95.99;99190.16;4075026;29;20678;-89
2023/09/30 07:24:54;;;;;;;10.00;6.77;;;;;;;18.90;95.55;99193.97;4094099;28;20635;-88
2023/09/30 07:26:58;;;;;;;9.87;7.30;;;;;;;18.95;94.23;99191.78;4090206;28;20651;-88
2023/09/30 07:29:04;;;;;;;9.60;6.83;;;;;;;18.95;94.00;99197.06;4060914;29;21219;-88
2023/09/30 07:31:07;;;;;;;9.57;7.20;;;;;;;18.93;93.85;99208.75;4064408;29;21148;-89
2023/09/30 07:33:11;;;;;;;10.70;7.30;;;;;;;18.92;94.14;99212.34;4093809;28;20635;-89
2023/09/30 07:35:15;;;;;;;10.70;6.90;;;;;;;18.94;93.93;99211.28;4095846;28;20685;-89
2023/09/30 07:37:20;;;;;;;10.83;6.80;;;;;;;19.02;94.49;99210.66;4100107;28;20632;-89
2023/09/30 07:39:24;;;;;;;9.77;6.53;;;;;;;19.06;92.71;99196.19;4095980;28;20690;-89
2023/09/30 07:41:27;;;;;;;9.70;6.77;;;;;;;19.06;94.06;99199.69;4080681;29;22389;-90
2023/09/30 07:43:30;;;;;;;10.07;6.90;;;;;;;19.11;94.07;99196.63;4076368;29;21112;-88
2023/09/30 07:45:34;;;;;;;11.53;7.70;;;;;;;19.19;92.71;99204.78;4078536;29;20799;-89
2023/09/30 07:47:36;;;;;;;9.90;6.90;;;;;;;19.24;94.00;99213.16;4075326;29;20629;-88
2023/09/30 07:49:39;;;;;;;12.30;7.50;;;;;;;19.35;93.90;99210.41;4075181;29;20693;-89
2023/09/30 07:51:43;;;;;;;8.57;6.97;;;;;;;19.51;94.22;99217.75;4109225;28;20770;-89
2023/09/30 07:53:46;;;;;;;10.50;7.70;;;;;;;19.62;92.57;99208.88;4099962;28;20641;-85
2023/09/30 07:55:49;;;;;;;11.37;7.37;;;;;;;19.81;92.85;99217.72;4077921;29;20652;-86
2023/09/30 07:57:53;;;;;;;11.07;7.70;;;;;;;19.98;92.74;99233.88;4091160;28;20662;-89
2023/09/30 07:59:57;;;;;;;12.00;7.53;;;;;;;20.15;91.46;99229.75;4072610;29;20666;-89
2023/09/30 08:02:04;;;;;;;9.97;7.33;;;;;;;20.33;91.13;99237.72;4072037;29;20634;-88
2023/09/30 08:04:07;;;;;;;9.37;7.20;;;;;;;20.53;89.78;99233.28;4085867;28;20648;-87
2023/09/30 08:06:11;;;;;;;10.10;6.90;;;;;;;20.64;87.17;99235.78;4105617;28;20636;-87
2023/09/30 08:08:14;;;;;;;12.10;6.30;;;;;;;20.73;86.70;99233.16;4076424;29;20734;-88
2023/09/30 08:10:18;;;;;;;8.50;6.67;;;;;;;20.79;85.67;99222.00;4075538;29;20680;-89
2023/09/30 08:12:21;;;;;;;13.13;7.40;;;;;;;20.82;87.08;99208.44;4106778;28;20732;-89
2023/09/30 08:14:24;;;;;;;11.53;7.20;;;;;;;20.94;87.50;99205.53;4106338;28;21190;-88
2023/09/30 08:16:29;;;;;;;9.93;6.30;;;;;;;21.05;87.97;99204.50;4074327;29;21011;-89
2023/09/30 08:18:32;;;;;;;9.80;6.27;;;;;;;21.14;85.94;99212.47;4076430;29;21826;-89
2023/09/30 08:20:36;;;;;;;12.83;7.30;;;;;;;21.25;85.52;99219.44;4088012;28;20635;-90
2023/09/30 08:22:40;;;;;;;9.87;6.70;;;;;;;21.33;85.73;99217.72;4087916;28;21268;-90
2023/09/30 08:24:45;;;;;;;9.47;5.70;;;;;;;21.40;83.42;99203.72;4078519;29;20698;-89
2023/09/30 08:26:48;;;;;;;12.40;7.17;;;;;;;21.51;82.86;99211.53;4088359;28;25505;-89
2023/09/30 08:28:51;;;;;;;9.80;7.17;;;;;;;21.60;85.29;99209.84;4107103;28;20656;-89
2023/09/30 08:30:58;;;;;;;10.17;6.63;;;;;;;21.68;82.85;99212.59;4075228;29;20686;-87
2023/09/30 08:33:05;;;;;;;11.67;8.27;;;;;;;21.66;81.87;99211.94;4074677;29;20644;-88
2023/09/30 08:35:09;;;;;;;9.97;7.23;;;;;;;21.71;82.51;99202.53;4076172;29;20662;-88
2023/09/30 08:37:13;;;;;;;13.57;8.87;;;;;;;21.77;82.60;99202.78;4075779;29;21268;-88
2023/09/30 08:39:16;;;;;;;11.13;7.00;;;;;;;21.76;81.10;99201.09;4075358;29;20663;-88
2023/09/30 08:41:29;;;;;;;11.20;6.77;;;;;;;21.86;82.06;99211.69;4087495;28;20638;-86
2023/09/30 08:43:38;;;;;;;10.47;6.60;;;;;;;21.91;79.57;99198.81;4070674;29;21301;-87
2023/09/30 08:45:45;;;;;;;9.70;6.40;;;;;;;21.94;78.17;99185.22;4075491;29;20687;-87
2023/09/30 08:47:50;;;;;;;8.47;6.97;;;;;;;21.93;80.00;99180.88;4094097;28;20643;-93
2023/09/30 08:49:57;;;;;;;8.73;6.67;;;;;;;22.01;80.02;99188.94;4094505;28;20634;-93
2023/09/30 08:52:01;;;;;;;11.20;6.50;;;;;;;22.11;80.51;99195.88;4077738;29;21724;-93
2023/09/30 08:54:06;;;;;;;9.17;6.70;;;;;;;22.17;79.17;99199.78;4110161;28;20649;-94
2023/09/30 08:56:10;;;;;;;11.83;6.93;;;;;;;22.25;77.90;99206.88;4101198;28;21200;-95
2023/09/30 08:58:14;;;;;;;8.77;6.73;;;;;;;22.33;76.77;99206.97;4086385;29;20636;-92
2023/09/30 09:00:17;;;;;;;13.30;6.43;;;;;;;22.37;77.14;99203.03;4075316;29;20746;-96
2023/09/30 09:02:20;;;;;;;8.33;6.23;;;;;;;22.43;76.99;99204.22;4096275;28;20638;-91
2023/09/30 09:04:23;;;;;;;9.77;8.30;;;;;;;22.55;79.32;99197.69;4102673;28;20680;-90
2023/09/30 09:06:28;;;;;;;9.40;6.67;;;;;;;22.65;75.99;99201.97;4095591;28;20726;-92
2023/09/30 09:08:32;;;;;;;8.10;6.87;;;;;;;22.67;76.68;99193.81;4083518;29;20643;-95
2023/09/30 09:10:36;;;;;;;8.53;6.60;;;;;;;22.72;78.36;99197.72;4088767;29;20630;-95
2023/09/30 09:12:39;;;;;;;9.47;7.60;;;;;;;22.83;78.83;99208.94;4114901;28;21387;-94
2023/09/30 09:14:43;;;;;;;7.70;5.77;;;;;;;22.90;77.92;99201.19;4075386;29;20661;-96
2023/09/30 09:16:52;;;;;;;8.43;5.63;;;;;;;22.96;77.39;99205.94;4078436;29;21112;-86
2023/09/30 09:18:56;;;;;;;9.47;5.73;;;;;;;23.03;77.55;99202.47;4078877;29;21092;-85
2023/09/30 09:21:10;;;;;;;8.50;5.73;;;;;;;23.07;74.37;99203.03;4080105;29;21085;-84
2023/09/30 09:23:16;;;;;;;8.10;6.50;;;;;;;22.93;75.02;99199.09;4076877;29;20675;-85
2023/09/30 09:25:19;;;;;;;11.43;7.00;;;;;;;22.90;75.59;99201.19;4075797;29;20672;-85
2023/09/30 09:27:24;;;;;;;9.33;6.20;;;;;;;22.84;73.96;99199.16;4090280;28;20732;-85
2023/09/30 09:29:28;;;;;;;8.90;6.13;;;;;;;22.86;74.97;99203.31;4093814;28;20630;-85
2023/09/30 09:31:34;;;;;;;10.10;6.40;;;;;;;22.85;74.10;99192.81;4091816;28;21247;-85
2023/09/30 09:33:38;;;;;;;7.47;6.00;;;;;;;22.91;75.08;99201.03;4081148;29;20766;-87
2023/09/30 09:35:41;;;;;;;9.60;6.00;;;;;;;22.93;75.40;99201.75;4082597;29;20224;-85
2023/09/30 09:37:54;;;;;;;8.70;6.43;;;;;;;22.98;75.00;99196.78;4092753;28;20641;-86
2023/09/30 09:39:59;;;;;;;8.73;6.67;;;;;;;23.03;74.37;99193.66;4112459;28;20738;-86
2023/09/30 09:42:03;;;;;;;8.20;5.80;;;;;;;23.06;73.69;99185.38;4080112;29;20629;-86